Pagina principală
METAR-TAF:

METAR-TAF

Aeroporturi :

Nouméa La Tontouta, Noua Caledonie

Latitudine: 22-01S, longitudine: 166-13E, elevație: 16 m

Observații meteo curente

Raportul a fost făcut în urmă cu 24 de minute, la 10:30 UTC
Vânt 3 kt de la Sud-est
Temperatură 25°C
Umiditate 74%
Presiune 1014 hPa
Vizibilitate de 10 km sau mai mult
Total acoperit la o înălțime de 4800 picior

METAR: NWWW 181030Z AUTO 13003KT 9999 OVC048 25/20 Q1014 TEMPO SHRA SCT020TCU

Ora: 21:54 (10:54 UTC)

Prognoză

Raportul a fost făcut în urmă cu 10 ore și 44 de minute, la 00:10 UTC
Prognoză valabilă de la 18 ora 00 UTC la 18 ora 24 UTC
Vânt 12 kt de la Sud/Sud-est
Vizibilitate de 10 km sau mai mult
Nori puțini la o înălțime de 4500 picior
Devenind
de la 18 ora 07 UTC la 18 ora 09 UTC
Vânt 2 kt din direcții variabile

TAF: NWWW 180010Z 1800/1824 15012KT 9999 FEW045 BECMG 1807/1809 VRB02KT

Observații și prognoze meteo pentru peste 4.000 de aeroporturi (rapoarte METAR și TAF).

Stațiile disponibile sunt reprezentate pe hartă prin puncte galbene și roșii.

Țineți indicatorul mouse-ului pe punctul dorit pentru a vedea denumirea stației.

Apoi, faceți clic pentru a vedea observațiile și prognozele meteorologice.

Pentru a schimba harta: Pentru mărire, faceți clic pe butoanele verzi cu cruce neagră; pentru micșorare, pe butonul verde cu o liniuță; pentru hărți învecinate, pe săgețile verzi.


METAR-TAF: